Al Baha, Saudi Arabia

11:25 AM AST on August 27, 2016 (GMT +0300)
Al Baha | | Change Station

Elev 5420 ft 20.30 °N, 41.63 °E | Updated 25 minutes ago

Clear
Clear
90 °F
Feels Like 90 °F
N
8
Wind Variable Wind from ESE

Today
High -- | Low -- °F
--% Chance of Precip.
Yesterday
High -- | Low -- °F
Precip. -- in
Pressure 30.12 in
Visibility -9999.0 miles
Clouds
Dew Point 50 °F
Humidity 26%
Rainfall 0.00 in
Snow Depth Not available.
5:56 AM 6:33 PM
Waning Crescent, 26% visible
METAR OEBA 270800Z 12007KT CAVOK 32/10 Q1020 NOSIG
Pressure 30.12 in
Visibility -9999.0 miles
Clouds
Dew Point 50 °F
Humidity 26%
Rainfall 0.00 in
Snow Depth Not available.
5:56 AM 6:33 PM
Waning Crescent, 26% visible
METAR OEBA 270800Z 12007KT CAVOK 32/10 Q1020 NOSIG

10-Day Weather Forecast

No radar image for this location.
×

Almanac

Astronomy

Aug. 27, 2016 Rise Set
Actual Time
Civil Twilight
Nautical Twilight
Astronomical Twilight
Moon
Length of Visible Light
Length of Day
Tomorrow will be .
, % of the Moon is Illuminated

Today's Extremes

Country Highs Country Lows

Community

WunderPhotos

Upload Photos

1,935,303 photos uploaded!

WunderBlog® & News

Nearby

Air Quality

  Air Quality AQ Index Pollutant
Not available.

Snow Depth

Station Depth Elevation

Earthquake Activity

City Distance Mag. Time & Date
Minimum magnitude displayed is 2.5.

Coastal Water Temperatures

Place Temperature

Stations

Nearby Weather Stations

Station Location Temp. Windchill Dew Point Humidity Wind Precip. Elev Updated Type